Time;durP1;ratioP1;P1;durP2;ratioP2;P2;SDS_P1;SDS_P2;PMS_P1;PMS_P2;Temp;Humidity;BMP_temperature;BMP_pressure;BME280_temperature;BME280_humidity;BME280_pressure;Samples;Min_cycle;Max_cycle;Signal;HPM_P1;HPM_P2
2023/09/22 08:11:08;;;;;;;10.78;5.55;;;;;;;22.87;51.10;100589.32;1712959;81;21214;-78
2023/09/22 08:13:41;;;;;;;10.55;5.47;;;;;;;23.40;49.31;100587.19;1718020;83;21470;-77
2023/09/22 08:16:21;;;;;;;11.05;5.60;;;;;;;23.86;47.66;100584.45;1713529;84;21498;-79
2023/09/22 08:18:53;;;;;;;13.83;6.30;;;;;;;24.20;47.09;100585.55;1713845;84;21015;-77
2023/09/22 08:21:22;;;;;;;11.60;5.35;;;;;;;24.50;46.03;100577.64;1713808;84;21075;-79
2023/09/22 08:23:55;;;;;;;12.98;5.85;;;;;;;24.74;45.57;100572.80;1713502;84;21666;-78
2023/09/22 08:26:25;;;;;;;19.85;7.15;;;;;;;25.03;44.94;100579.97;1713666;84;21553;-78
2023/09/22 08:28:55;;;;;;;12.07;5.75;;;;;;;25.32;44.59;100573.89;1713574;84;21011;-78
2023/09/22 08:31:29;;;;;;;11.48;5.10;;;;;;;25.56;43.51;100573.45;1713587;84;21647;-77
2023/09/22 08:34:02;;;;;;;10.35;5.72;;;;;;;25.77;43.16;100579.75;1713917;84;21027;-77
2023/09/22 08:36:33;;;;;;;10.53;5.80;;;;;;;26.04;42.50;100570.81;1713623;84;21558;-76
2023/09/22 08:39:04;;;;;;;9.38;5.22;;;;;;;26.25;41.54;100563.58;1713948;84;21068;-77
2023/09/22 08:41:37;;;;;;;15.63;5.70;;;;;;;26.35;40.16;100567.14;1723377;79;21477;-76
2023/09/22 08:44:07;;;;;;;9.80;5.35;;;;;;;26.32;39.97;100562.08;1819085;79;20987;-78
2023/09/22 08:46:37;;;;;;;13.65;5.50;;;;;;;26.08;40.14;100562.63;1817210;78;21038;-78
2023/09/22 08:49:08;;;;;;;9.95;5.37;;;;;;;26.08;40.14;100562.63;1827626;78;21736;-77
2023/09/22 08:51:38;;;;;;;15.65;6.10;;;;;;;26.03;39.86;100563.52;1806588;79;21039;-79
2023/09/22 08:54:10;;;;;;;13.83;6.12;;;;;;;25.89;39.23;100570.38;1820489;79;21079;-77
2023/09/22 08:56:39;;;;;;;8.88;5.50;;;;;;;25.68;39.72;100568.89;1819331;79;20988;-78
2023/09/22 08:59:11;;;;;;;9.45;5.85;;;;;;;25.57;39.78;100564.46;1818984;79;20976;-78
2023/09/22 09:01:47;;;;;;;10.98;5.20;;;;;;;25.48;40.01;100557.23;1814034;79;21058;-79
2023/09/22 09:04:33;;;;;;;14.18;5.58;;;;;;;25.43;40.36;100564.86;1803503;79;21047;-80
2023/09/22 09:07:07;;;;;;;9.05;4.97;;;;;;;25.43;40.52;100554.47;1786883;80;21489;-80
2023/09/22 09:09:52;;;;;;;7.92;5.08;;;;;;;25.41;40.55;100556.73;1786628;80;20995;-79
2023/09/22 09:12:33;;;;;;;14.43;5.25;;;;;;;25.38;40.38;100553.11;1785693;80;21455;-82
2023/09/22 09:15:01;;;;;;;16.60;5.12;;;;;;;25.35;40.30;100557.03;1787138;80;21525;-79
2023/09/22 09:17:31;;;;;;;13.60;4.62;;;;;;;25.31;40.41;100551.17;1786833;80;21019;-79
2023/09/22 09:20:05;;;;;;;9.83;4.05;;;;;;;25.28;40.87;100551.19;1786790;80;21006;-80
2023/09/22 09:22:37;;;;;;;12.82;5.33;;;;;;;25.27;40.62;100549.52;1829564;78;21067;-78
2023/09/22 09:25:09;;;;;;;16.35;5.65;;;;;;;25.26;40.26;100548.41;1803773;78;21008;-79
2023/09/22 09:27:39;;;;;;;10.00;5.53;;;;;;;25.24;40.56;100547.30;1804324;78;21461;-77
2023/09/22 09:30:14;;;;;;;8.55;4.70;;;;;;;25.22;40.42;100553.77;1755285;81;21052;-77
2023/09/22 09:32:44;;;;;;;6.87;4.37;;;;;;;25.18;40.65;100544.81;1830394;78;21040;-78
2023/09/22 09:35:28;;;;;;;10.43;4.10;;;;;;;25.16;40.50;100550.72;1755181;82;21088;-80
2023/09/22 09:38:03;;;;;;;8.48;4.05;;;;;;;25.15;40.44;100543.44;1827686;78;21040;-77
2023/09/22 09:40:37;;;;;;;10.32;3.95;;;;;;;25.15;40.74;100550.44;1830434;78;21163;-79
2023/09/22 09:43:14;;;;;;;9.95;4.35;;;;;;;25.12;40.39;100550.19;1804329;78;21031;-78
2023/09/22 09:45:47;;;;;;;10.75;4.08;;;;;;;25.09;40.17;100543.76;1755107;81;21056;-79
2023/09/22 09:48:19;;;;;;;8.20;3.80;;;;;;;25.09;39.94;100543.76;1830353;78;21090;-80
2023/09/22 09:50:54;;;;;;;8.35;3.55;;;;;;;25.06;39.89;100547.98;1755171;81;21087;-78
2023/09/22 09:53:40;;;;;;;8.68;3.62;;;;;;;25.05;39.57;100542.66;1830418;78;21532;-79
2023/09/22 09:56:15;;;;;;;9.70;4.08;;;;;;;25.01;39.88;100536.80;1815958;78;21367;-79
2023/09/22 09:58:48;;;;;;;8.45;3.90;;;;;;;25.00;39.95;100542.70;1811134;79;21120;-79
2023/09/22 10:01:19;;;;;;;10.45;4.15;;;;;;;25.02;39.77;100543.25;1808604;79;21021;-79
2023/09/22 10:03:49;;;;;;;11.88;4.05;;;;;;;25.03;39.67;100540.15;1811001;79;21187;-77
2023/09/22 10:06:21;;;;;;;8.53;3.70;;;;;;;25.07;39.52;100534.80;1811280;79;21028;-80
2023/09/22 10:08:51;;;;;;;5.60;3.55;;;;;;;25.11;39.42;100535.33;1810985;79;21060;-78
2023/09/22 10:11:20;;;;;;;9.23;3.92;;;;;;;25.14;39.54;100539.52;1811124;78;21037;-77
2023/09/22 10:13:52;;;;;;;12.93;5.58;;;;;;;25.15;39.37;100543.44;1811160;79;21364;-80
2023/09/22 10:16:30;;;;;;;10.85;3.75;;;;;;;25.17;39.26;100536.13;1808491;79;21568;-79
2023/09/22 10:19:08;;;;;;;12.70;4.53;;;;;;;25.20;39.53;100535.55;1817256;79;21021;-77
2023/09/22 10:21:51;;;;;;;7.90;4.40;;;;;;;25.22;39.35;100527.67;1811520;79;21351;-78
2023/09/22 10:24:32;;;;;;;6.30;4.10;;;;;;;25.22;39.25;100527.67;1811141;79;20985;-80
2023/09/22 10:27:09;;;;;;;;;;;;;;;25.19;38.98;100527.70;1813833;79;21040;-79
2023/09/22 10:29:51;;;;;;;8.95;4.50;;;;;;;25.16;39.35;100528.28;1811157;79;20191;-80
2023/09/22 10:32:26;;;;;;;10.30;4.67;;;;;;;25.15;39.70;100530.81;1811571;79;21091;-79
2023/09/22 10:35:09;;;;;;;5.85;3.52;;;;;;;25.18;39.77;100526.59;1813973;78;21506;-79
2023/09/22 10:37:42;;;;;;;9.58;4.00;;;;;;;25.17;39.77;100524.91;1825500;78;21454;-78
2023/09/22 10:40:16;;;;;;;11.08;4.30;;;;;;;25.14;40.09;100518.48;1791406;78;21055;-77
2023/09/22 10:42:51;;;;;;;9.53;3.80;;;;;;;25.11;40.40;100527.48;1825608;78;21045;-79
2023/09/22 10:45:25;;;;;;;8.13;3.50;;;;;;;25.10;40.29;100521.03;1825516;78;21447;-79
2023/09/22 10:48:00;;;;;;;10.85;4.30;;;;;;;25.07;40.36;100520.22;1808241;79;21069;-78
2023/09/22 10:50:32;;;;;;;11.88;3.60;;;;;;;25.04;40.61;100512.95;1808110;79;21005;-79
2023/09/22 10:53:11;;;;;;;10.98;4.28;;;;;;;25.06;40.52;100517.70;1811173;79;21044;-77
2023/09/22 10:55:45;;;;;;;11.33;3.83;;;;;;;25.07;40.55;100523.59;1787062;79;21003;-78
2023/09/22 10:58:32;;;;;;;9.43;3.75;;;;;;;25.09;40.40;100521.33;1789533;79;21036;-81
2023/09/22 11:01:31;;;;;;;7.47;3.90;;;;;;;25.11;40.35;100519.07;1786200;79;21383;-78
2023/09/22 11:04:12;;;;;;;8.73;4.00;;;;;;;25.12;40.40;100516.54;1814379;79;21023;-79
2023/09/22 11:06:48;;;;;;;7.53;3.67;;;;;;;25.15;40.27;100518.76;1818698;79;20991;-81
2023/09/22 11:09:35;;;;;;;11.05;3.80;;;;;;;25.17;40.35;100517.91;1818787;79;20980;-78
2023/09/22 11:12:06;;;;;;;7.85;3.80;;;;;;;25.21;40.32;100516.19;1818358;79;20972;-76
2023/09/22 11:14:36;;;;;;;6.37;3.77;;;;;;;25.23;40.19;100507.75;1818734;79;21126;-77
2023/09/22 11:17:05;;;;;;;7.83;3.20;;;;;;;25.26;39.89;100508.57;1818798;79;21426;-77
2023/09/22 11:19:36;;;;;;;10.60;5.50;;;;;;;25.26;39.41;100504.36;1819016;79;20995;-80
2023/09/22 11:22:04;;;;;;;12.07;4.25;;;;;;;25.25;39.64;100499.05;1818777;79;21047;-77
2023/09/22 11:24:34;;;;;;;9.55;4.20;;;;;;;25.28;39.66;100504.07;1819002;79;21051;-79
2023/09/22 11:27:05;;;;;;;9.35;3.72;;;;;;;25.36;39.58;100502.07;1813894;79;21528;-72
2023/09/22 11:29:34;;;;;;;8.13;4.20;;;;;;;25.43;39.29;100504.53;1819068;79;21071;-79
2023/09/22 11:32:04;;;;;;;10.70;4.20;;;;;;;25.45;38.95;100510.69;1818808;79;21055;-78
2023/09/22 11:34:45;;;;;;;8.25;3.67;;;;;;;25.46;38.87;100504.78;1818746;79;21516;-78
2023/09/22 11:37:22;;;;;;;8.45;3.87;;;;;;;25.48;39.08;100501.69;1812222;79;21422;-78
2023/09/22 11:39:53;;;;;;;9.85;3.80;;;;;;;25.50;39.02;100500.26;1815264;79;21027;-78
2023/09/22 11:42:23;;;;;;;13.38;4.40;;;;;;;25.52;39.02;100498.56;1820937;79;21022;-81
2023/09/22 11:44:58;;;;;;;8.85;4.08;;;;;;;25.49;39.05;100501.39;1820963;77;21054;-77
2023/09/22 11:47:27;;;;;;;7.25;4.08;;;;;;;25.47;39.14;100500.02;1826007;77;21011;-79
2023/09/22 11:49:58;;;;;;;7.37;3.60;;;;;;;25.46;39.10;100495.53;1779598;80;21019;-77
2023/09/22 11:52:31;;;;;;;9.63;4.05;;;;;;;25.47;39.05;100496.64;1788680;80;21435;-78
2023/09/22 11:55:01;;;;;;;10.60;4.05;;;;;;;25.45;38.99;100496.09;1772517;80;21080;-79
2023/09/22 11:57:30;;;;;;;8.00;3.95;;;;;;;25.43;38.77;100492.75;1775100;80;21019;-76
2023/09/22 11:59:59;;;;;;;12.40;3.80;;;;;;;25.42;38.76;100497.25;1782468;80;21019;-77
2023/09/22 12:02:28;;;;;;;11.28;3.75;;;;;;;25.42;38.81;100489.67;1783149;79;21062;-77
2023/09/22 12:04:58;;;;;;;14.05;5.28;;;;;;;25.42;38.77;100495.84;1808864;78;21027;-79
2023/09/22 12:07:27;;;;;;;11.57;4.62;;;;;;;25.38;38.78;100491.95;1808917;79;21415;-75
2023/09/22 12:09:56;;;;;;;12.18;4.75;;;;;;;25.38;38.84;100491.95;1808885;79;21054;-77
2023/09/22 12:12:25;;;;;;;10.28;3.98;;;;;;;25.39;39.14;100486.62;1809186;79;21062;-73
2023/09/22 12:14:55;;;;;;;10.15;4.20;;;;;;;25.39;39.16;100486.05;1812069;79;21059;-73
2023/09/22 12:17:25;;;;;;;9.50;4.62;;;;;;;25.40;39.18;100482.12;1812097;79;21023;-78
2023/09/22 12:19:54;;;;;;;9.20;4.50;;;;;;;25.39;38.86;100484.65;1805715;79;21115;-79
2023/09/22 12:22:27;;;;;;;6.95;3.70;;;;;;;25.38;38.97;100481.58;1796601;80;21077;-77
2023/09/22 12:24:56;;;;;;;7.67;3.40;;;;;;;25.39;39.07;100481.01;1787177;80;21014;-80
2023/09/22 12:27:29;;;;;;;10.72;4.92;;;;;;;25.39;39.06;100480.44;1787294;80;21499;-78
2023/09/22 12:29:59;;;;;;;11.75;8.18;;;;;;;25.39;39.14;100479.61;1787160;80;20998;-77
2023/09/22 12:32:29;;;;;;;6.40;3.92;;;;;;;25.40;38.90;100476.50;1787252;80;21022;-79
2023/09/22 12:34:59;;;;;;;8.60;3.65;;;;;;;25.38;38.65;100470.92;1701262;84;21132;-77
2023/09/22 12:37:28;;;;;;;7.42;3.72;;;;;;;25.34;38.77;100462.22;1701480;84;21057;-80
2023/09/22 12:39:59;;;;;;;6.87;3.65;;;;;;;25.35;38.77;100467.27;1701492;84;21082;-78
2023/09/22 12:42:31;;;;;;;8.43;3.55;;;;;;;25.33;38.68;100464.75;1701346;84;21118;-78
2023/09/22 12:44:59;;;;;;;7.67;3.70;;;;;;;25.33;38.75;100468.13;1701303;84;21082;-79
2023/09/22 12:47:29;;;;;;;10.70;4.15;;;;;;;25.33;38.72;100460.55;1701356;84;21784;-77
2023/09/22 12:50:04;;;;;;;9.33;3.90;;;;;;;25.33;38.82;100462.52;1701626;84;21105;-80
2023/09/22 12:52:33;;;;;;;9.95;3.90;;;;;;;25.32;38.79;100461.68;1701265;84;21125;-79
2023/09/22 12:55:02;;;;;;;8.10;4.00;;;;;;;25.32;38.86;100458.88;1726298;83;21090;-76
2023/09/22 12:57:34;;;;;;;7.53;3.77;;;;;;;25.33;38.88;100461.95;1730149;83;21093;-77
2023/09/22 13:00:09;;;;;;;7.03;3.52;;;;;;;25.37;38.77;100467.27;1781750;79;20996;-79
2023/09/22 13:02:39;;;;;;;9.18;3.58;;;;;;;25.37;38.86;100467.84;1808116;79;21278;-77
2023/09/22 13:05:09;;;;;;;8.23;3.90;;;;;;;25.35;38.91;100458.85;1787404;80;21430;-78
2023/09/22 13:07:38;;;;;;;5.08;3.80;;;;;;;25.33;39.07;100461.95;1808496;79;20984;-80
2023/09/22 13:10:08;;;;;;;9.55;3.95;;;;;;;25.31;39.02;100462.81;1819420;79;20983;-76
2023/09/22 13:12:39;;;;;;;8.35;3.95;;;;;;;25.28;39.06;100456.39;1796235;79;21430;-79
2023/09/22 13:15:12;;;;;;;10.60;3.85;;;;;;;25.27;39.13;100456.11;1803815;79;21027;-77
2023/09/22 13:17:42;;;;;;;7.72;3.80;;;;;;;25.25;39.43;100457.81;1780583;79;21434;-78
2023/09/22 13:20:13;;;;;;;11.05;4.03;;;;;;;25.26;39.28;100450.23;1780032;80;21058;-78
2023/09/22 13:22:44;;;;;;;9.40;4.17;;;;;;;25.28;39.25;100456.39;1780033;80;21124;-78
2023/09/22 13:25:14;;;;;;;14.20;5.12;;;;;;;25.27;39.39;100454.15;1779940;80;21059;-78
2023/09/22 13:27:48;;;;;;;7.40;3.85;;;;;;;25.28;39.57;100445.16;1779794;80;21454;-78
2023/09/22 13:30:20;;;;;;;10.80;4.70;;;;;;;25.28;38.97;100457.79;1780208;80;21030;-77
2023/09/22 13:32:50;;;;;;;10.18;3.98;;;;;;;25.27;39.18;100449.94;1779842;80;20987;-76
2023/09/22 13:35:20;;;;;;;6.47;4.03;;;;;;;25.31;39.36;100456.36;1779800;80;21047;-78
2023/09/22 13:37:51;;;;;;;8.18;3.85;;;;;;;25.32;39.17;100456.07;1779985;80;21435;-77
2023/09/22 13:40:21;;;;;;;9.68;4.05;;;;;;;25.31;39.34;100450.19;1779988;80;21055;-78
2023/09/22 13:42:50;;;;;;;10.98;4.50;;;;;;;25.37;39.42;100453.25;1780035;80;21027;-79
2023/09/22 13:45:19;;;;;;;7.75;4.00;;;;;;;25.41;39.46;100448.72;1780176;80;20991;-79
2023/09/22 13:47:48;;;;;;;9.30;3.80;;;;;;;25.43;39.44;100447.86;1779958;80;21030;-77
2023/09/22 13:50:18;;;;;;;10.60;3.95;;;;;;;25.42;39.43;100447.59;1780297;80;21438;-77
2023/09/22 13:52:48;;;;;;;7.83;4.47;;;;;;;25.42;39.41;100446.75;1779699;80;21470;-79
2023/09/22 13:55:17;;;;;;;7.55;4.17;;;;;;;25.40;39.36;100444.24;1779919;80;21442;-74
2023/09/22 13:57:47;;;;;;;12.85;6.67;;;;;;;25.39;39.41;100443.97;1780073;80;21034;-83
2023/09/22 14:00:18;;;;;;;9.25;4.28;;;;;;;25.35;39.53;100438.66;1780553;80;21010;-84
2023/09/22 14:02:47;;;;;;;8.58;4.90;;;;;;;25.29;39.46;100435.05;1780752;80;21052;-83
2023/09/22 14:05:17;;;;;;;11.95;5.08;;;;;;;25.23;39.50;100430.63;1780952;80;21010;-87
2023/09/22 14:07:47;;;;;;;9.68;4.67;;;;;;;25.15;39.60;100437.44;1806964;79;21400;-88
2023/09/22 14:10:17;;;;;;;6.78;4.37;;;;;;;25.09;39.86;100438.61;1812541;79;21003;-84
2023/09/22 14:12:46;;;;;;;9.10;4.72;;;;;;;25.01;39.76;100435.03;1791544;77;21062;-84
2023/09/22 14:15:17;;;;;;;8.98;4.65;;;;;;;24.94;39.74;100437.57;1825154;78;21023;-85
2023/09/22 14:17:49;;;;;;;10.03;4.40;;;;;;;24.89;39.76;100446.02;1825575;78;21011;-86
2023/09/22 14:20:20;;;;;;;10.63;4.75;;;;;;;24.84;39.99;100439.05;1826361;78;21015;-86
2023/09/22 14:22:53;;;;;;;8.95;4.95;;;;;;;24.81;39.99;100441.59;1793125;78;21050;-85
2023/09/22 14:25:24;;;;;;;11.57;4.25;;;;;;;24.76;39.97;100437.43;1826286;78;21051;-83
2023/09/22 14:27:54;;;;;;;9.98;4.70;;;;;;;24.69;40.08;100437.72;1826103;78;21107;-84
2023/09/22 14:30:24;;;;;;;9.38;4.92;;;;;;;24.63;40.23;100436.92;1827748;78;21447;-81
2023/09/22 14:32:54;;;;;;;12.05;5.25;;;;;;;24.58;40.25;100429.95;1794407;78;21031;-80
2023/09/22 14:35:26;;;;;;;9.55;5.55;;;;;;;24.53;40.42;100428.58;1827544;78;21027;-85
2023/09/22 14:37:56;;;;;;;9.30;4.65;;;;;;;24.48;40.65;100431.98;1826574;78;21027;-83
2023/09/22 14:40:25;;;;;;;11.18;4.85;;;;;;;24.43;40.69;100430.05;1825928;78;20999;-85
2023/09/22 14:42:56;;;;;;;11.00;4.97;;;;;;;24.39;40.81;100428.11;1825201;78;21015;-82
2023/09/22 14:45:24;;;;;;;7.22;4.65;;;;;;;24.33;40.99;100424.50;1757925;81;21478;-85
2023/09/22 14:47:54;;;;;;;11.75;5.30;;;;;;;24.27;41.03;100431.26;1824680;78;21524;-82
2023/09/22 14:50:25;;;;;;;11.08;5.03;;;;;;;24.21;41.25;100416.41;1757853;81;21094;-82
2023/09/22 14:52:54;;;;;;;11.18;5.85;;;;;;;24.18;41.22;100428.75;1757819;81;21055;-86
2023/09/22 14:55:23;;;;;;;8.65;5.20;;;;;;;24.13;41.44;100423.17;1824772;78;21034;-83
2023/09/22 14:57:52;;;;;;;10.55;5.08;;;;;;;24.09;41.48;100426.27;1757455;81;21015;-83
2023/09/22 15:00:21;;;;;;;12.95;5.28;;;;;;;24.05;41.60;100425.98;1757733;81;21478;-85
2023/09/22 15:02:51;;;;;;;9.08;5.22;;;;;;;24.01;41.69;100427.67;1758001;81;21055;-83
2023/09/22 15:05:22;;;;;;;13.32;5.50;;;;;;;23.98;41.78;100426.84;1758583;81;21014;-83
2023/09/22 15:07:52;;;;;;;12.20;5.75;;;;;;;23.95;41.89;100425.45;1763033;81;21034;-83
2023/09/22 15:10:21;;;;;;;10.75;5.50;;;;;;;23.93;41.87;100422.67;1822542;79;21007;-83
2023/09/22 15:12:53;;;;;;;11.43;4.97;;;;;;;23.91;42.00;100422.95;1822215;79;21446;-83
2023/09/22 15:15:22;;;;;;;9.43;5.40;;;;;;;23.90;42.06;100429.67;1809664;79;21180;-84
2023/09/22 15:17:54;;;;;;;14.00;5.30;;;;;;;23.88;42.12;100425.48;1808328;79;21043;-84
2023/09/22 15:20:23;;;;;;;11.90;5.35;;;;;;;23.88;42.33;100425.48;1808232;79;21511;-83
2023/09/22 15:22:54;;;;;;;12.68;6.05;;;;;;;23.87;42.20;100425.21;1808095;79;21094;-78
2023/09/22 15:25:23;;;;;;;13.68;5.85;;;;;;;23.86;42.18;100429.97;1808213;79;21525;-83
2023/09/22 15:27:52;;;;;;;13.93;5.47;;;;;;;23.84;42.29;100426.62;1808330;79;21050;-84
2023/09/22 15:30:21;;;;;;;14.95;5.85;;;;;;;23.83;42.32;100426.91;1788199;79;21074;-83
2023/09/22 15:32:51;;;;;;;10.68;6.20;;;;;;;23.81;42.42;100425.78;1808419;79;20999;-84
2023/09/22 15:35:20;;;;;;;13.15;6.00;;;;;;;23.80;42.32;100429.70;1808345;79;21486;-83
2023/09/22 15:37:52;;;;;;;10.43;6.28;;;;;;;23.77;42.19;100436.44;1808389;79;20988;-84
2023/09/22 15:40:22;;;;;;;11.05;5.80;;;;;;;23.75;42.20;100435.88;1808343;79;21455;-82
2023/09/22 15:42:51;;;;;;;12.95;6.15;;;;;;;23.71;42.42;100432.25;1808255;79;21035;-74
2023/09/22 15:45:21;;;;;;;15.72;6.22;;;;;;;23.69;42.55;100439.25;1807642;79;21031;-79
2023/09/22 15:47:51;;;;;;;12.03;5.75;;;;;;;23.63;42.82;100426.41;1787030;79;21074;-80
2023/09/22 15:50:21;;;;;;;11.40;6.05;;;;;;;23.58;42.83;100427.25;1807538;79;21094;-81
2023/09/22 15:52:50;;;;;;;11.22;6.00;;;;;;;23.54;42.89;100439.26;1787111;79;21070;-80
2023/09/22 15:55:20;;;;;;;12.10;6.00;;;;;;;23.51;42.86;100448.22;1794645;79;21461;-81
2023/09/22 15:57:50;;;;;;;9.18;5.83;;;;;;;23.44;43.01;100438.72;1776056;81;21434;-81
2023/09/22 16:00:19;;;;;;;13.65;6.42;;;;;;;23.39;43.16;100444.28;1777283;81;21039;-83
2023/09/22 16:02:49;;;;;;;15.05;6.92;;;;;;;23.34;43.41;100448.48;1778028;80;21486;-87
2023/09/22 16:05:19;;;;;;;13.55;7.08;;;;;;;23.29;43.59;100447.93;1723880;83;21033;-85
2023/09/22 16:07:49;;;;;;;13.58;6.85;;;;;;;23.23;43.86;100453.25;1723867;83;21114;-84
2023/09/22 16:10:20;;;;;;;17.80;7.53;;;;;;;23.19;44.08;100447.10;1723308;83;21024;-84
2023/09/22 16:12:51;;;;;;;14.68;7.20;;;;;;;23.12;44.26;100449.34;1723240;83;21496;-84
2023/09/22 16:15:20;;;;;;;16.32;7.75;;;;;;;23.04;44.51;100458.56;1725337;82;21151;-84
2023/09/22 16:17:50;;;;;;;19.05;8.03;;;;;;;22.99;44.67;100452.13;1723421;83;21062;-85
2023/09/22 16:20:20;;;;;;;11.28;7.35;;;;;;;22.94;44.80;100457.16;1723609;83;21120;-87
2023/09/22 16:22:50;;;;;;;17.25;7.45;;;;;;;22.87;45.07;100459.39;1723579;83;21611;-79
2023/09/22 16:25:19;;;;;;;13.90;6.95;;;;;;;22.83;45.18;100466.65;1723544;83;21039;-84
2023/09/22 16:27:52;;;;;;;16.20;6.25;;;;;;;22.79;45.32;100464.09;1723545;83;21106;-85
2023/09/22 16:30:21;;;;;;;13.10;7.03;;;;;;;22.73;45.27;100461.82;1742855;80;21434;-85
2023/09/22 16:32:51;;;;;;;13.50;6.47;;;;;;;22.68;45.37;100461.81;1793615;80;20994;-82
2023/09/22 16:35:20;;;;;;;17.87;6.60;;;;;;;22.66;45.51;100467.39;1793193;80;21022;-84
2023/09/22 16:37:49;;;;;;;14.50;6.58;;;;;;;22.63;45.63;100469.34;1793334;80;21022;-83
2023/09/22 16:40:19;;;;;;;11.18;5.95;;;;;;;22.61;45.67;100468.78;1761724;80;21002;-80
2023/09/22 16:42:49;;;;;;;13.38;6.83;;;;;;;22.58;45.74;100467.93;1793723;80;21469;-86
2023/09/22 16:45:19;;;;;;;13.65;6.20;;;;;;;22.54;45.85;100473.23;1793313;80;21446;-84
2023/09/22 16:47:48;;;;;;;12.07;6.35;;;;;;;22.52;45.66;100478.25;1793518;80;20970;-84
2023/09/22 16:50:19;;;;;;;15.53;7.58;;;;;;;22.50;45.66;100476.84;1793355;80;21465;-84
2023/09/22 16:52:49;;;;;;;12.73;7.50;;;;;;;22.45;45.80;100470.14;1793614;80;21022;-83
2023/09/22 16:55:19;;;;;;;12.98;7.05;;;;;;;22.44;45.78;100471.25;1793785;80;21042;-79
2023/09/22 16:57:50;;;;;;;15.85;6.80;;;;;;;22.42;45.76;100469.84;1761848;80;21026;-84
2023/09/22 17:00:22;;;;;;;14.50;6.20;;;;;;;22.39;45.78;100472.62;1794033;80;20998;-83
2023/09/22 17:02:54;;;;;;;13.93;6.58;;;;;;;22.36;45.41;100473.17;1793350;80;20994;-85
2023/09/22 17:05:24;;;;;;;11.25;6.45;;;;;;;22.35;45.41;100477.08;1793300;80;21038;-81
2023/09/22 17:07:53;;;;;;;14.13;6.60;;;;;;;22.33;45.32;100480.70;1793709;80;21453;-84
2023/09/22 17:10:22;;;;;;;13.40;6.37;;;;;;;22.30;45.46;100477.06;1761457;80;21422;-83
2023/09/22 17:12:52;;;;;;;12.63;6.50;;;;;;;22.28;45.51;100488.22;1793513;80;21026;-82
2023/09/22 17:15:21;;;;;;;14.05;6.37;;;;;;;22.25;45.63;100489.61;1786053;80;21042;-79
2023/09/22 17:17:51;;;;;;;13.55;7.28;;;;;;;22.22;45.76;100486.52;1781246;80;21046;-82
2023/09/22 17:20:21;;;;;;;12.45;6.65;;;;;;;22.18;45.77;100490.41;1780677;80;21030;-84
2023/09/22 17:22:51;;;;;;;11.53;6.92;;;;;;;22.15;45.84;100482.59;1780756;80;21034;-83
2023/09/22 17:25:20;;;;;;;14.40;6.70;;;;;;;22.12;45.92;100486.77;1730303;80;21042;-82
2023/09/22 17:27:51;;;;;;;14.93;6.90;;;;;;;22.09;45.81;100478.06;1781222;80;20972;-83
2023/09/22 17:30:22;;;;;;;12.43;6.30;;;;;;;22.04;45.88;100480.83;1782718;80;21010;-85
2023/09/22 17:32:51;;;;;;;10.72;6.83;;;;;;;22.01;45.85;100480.78;1783480;80;21038;-85
2023/09/22 17:35:21;;;;;;;16.23;6.83;;;;;;;21.98;45.91;100485.52;1782770;80;21058;-85
2023/09/22 17:37:51;;;;;;;14.87;6.95;;;;;;;21.97;45.92;100486.62;1781744;80;20999;-84
2023/09/22 17:40:21;;;;;;;16.27;6.75;;;;;;;21.95;46.05;100487.45;1780869;80;21022;-82
2023/09/22 17:42:51;;;;;;;12.20;6.83;;;;;;;21.92;46.17;100487.15;1780410;80;21438;-82
2023/09/22 17:45:21;;;;;;;13.83;7.28;;;;;;;21.88;46.30;100489.64;1781149;80;22071;-84
2023/09/22 17:47:50;;;;;;;12.65;6.85;;;;;;;21.84;46.39;100490.73;1781144;80;21070;-84
2023/09/22 17:50:20;;;;;;;12.23;7.28;;;;;;;21.80;46.43;100486.80;1781018;80;21457;-85
2023/09/22 17:52:50;;;;;;;14.38;7.45;;;;;;;;;;1781197;80;20998;-84
2023/09/22 17:55:19;;;;;;;14.13;6.90;;;;;;;21.75;46.54;100488.17;1780911;80;21031;-84
2023/09/22 17:57:48;;;;;;;11.65;6.40;;;;;;;21.74;46.64;100480.91;1780799;80;21060;-85
2023/09/22 18:00:18;;;;;;;13.95;6.42;;;;;;;21.73;46.73;100489.00;1780897;80;21011;-84
2023/09/22 18:02:48;;;;;;;11.95;6.33;;;;;;;21.72;46.76;100490.11;1780985;80;21482;-83
2023/09/22 18:05:17;;;;;;;13.35;6.67;;;;;;;21.70;46.71;100479.77;1781063;80;20987;-82
2023/09/22 18:07:47;;;;;;;11.43;5.97;;;;;;;21.69;46.73;100492.59;1781356;80;20991;-83
2023/09/22 18:10:16;;;;;;;12.70;6.75;;;;;;;21.68;46.78;100489.52;1780664;80;21007;-82
2023/09/22 18:12:46;;;;;;;11.90;6.90;;;;;;;21.66;46.79;100488.39;1781489;80;21029;-85
2023/09/22 18:15:16;;;;;;;13.50;7.00;;;;;;;21.66;46.92;100494.53;1780647;80;21034;-84
2023/09/22 18:17:46;;;;;;;16.10;6.50;;;;;;;21.65;46.99;100491.45;1780798;80;20999;-84
2023/09/22 18:20:15;;;;;;;10.40;6.67;;;;;;;;;;1781106;80;21026;-83
2023/09/22 18:22:45;;;;;;;11.12;6.72;;;;;;;21.61;47.23;100486.97;1780673;80;21019;-83
2023/09/22 18:25:14;;;;;;;13.13;7.62;;;;;;;21.60;47.34;100488.07;1780627;80;21007;-82
2023/09/22 18:27:44;;;;;;;12.58;7.65;;;;;;;21.56;47.40;100493.91;1780760;80;20998;-85
2023/09/22 18:30:13;;;;;;;14.18;7.90;;;;;;;21.54;47.55;100488.30;1780912;80;21103;-84
2023/09/22 18:32:43;;;;;;;16.30;7.12;;;;;;;21.52;47.74;100488.58;1780835;80;20986;-82
2023/09/22 18:35:12;;;;;;;16.10;7.55;;;;;;;21.51;47.84;100486.89;1780509;80;21034;-83
2023/09/22 18:37:43;;;;;;;16.20;8.25;;;;;;;21.49;48.02;100492.74;1780763;80;21042;-84
2023/09/22 18:40:12;;;;;;;13.35;7.90;;;;;;;21.45;48.21;100490.17;1780724;80;20998;-83
2023/09/22 18:42:42;;;;;;;12.07;7.65;;;;;;;21.42;48.48;100491.26;1780352;80;21011;-84
2023/09/22 18:45:12;;;;;;;14.55;7.92;;;;;;;21.35;48.77;100487.86;1780607;80;20998;-84
2023/09/22 18:47:43;;;;;;;11.15;7.47;;;;;;;21.30;49.02;100483.08;1780559;80;21450;-82
2023/09/22 18:50:14;;;;;;;10.65;7.30;;;;;;;21.26;49.34;100489.45;1780853;80;20971;-83
2023/09/22 18:52:44;;;;;;;15.65;7.70;;;;;;;21.20;49.55;100488.54;1780619;80;21011;-85
2023/09/22 18:55:13;;;;;;;13.80;7.58;;;;;;;21.14;49.85;100486.27;1780810;80;20983;-84
2023/09/22 18:57:42;;;;;;;14.55;7.37;;;;;;;21.09;50.14;100483.44;1780839;80;20986;-82
2023/09/22 19:00:13;;;;;;;12.82;7.37;;;;;;;21.04;50.36;100489.52;1761286;80;21011;-83
2023/09/22 19:02:43;;;;;;;12.35;7.70;;;;;;;20.99;50.58;100486.12;1780650;80;21092;-83
2023/09/22 19:05:12;;;;;;;12.82;8.08;;;;;;;20.97;50.74;100484.16;1780817;80;20967;-86
2023/09/22 19:07:46;;;;;;;11.40;7.55;;;;;;;20.96;50.89;100489.44;1780766;80;21007;-83
2023/09/22 19:10:12;;;;;;;12.75;8.00;;;;;;;20.94;51.03;100484.69;1780399;80;20991;-84
2023/09/22 19:12:42;;;;;;;14.00;7.50;;;;;;;20.94;51.14;100491.66;1760976;80;21523;-85
2023/09/22 19:15:12;;;;;;;16.27;7.45;;;;;;;20.93;51.29;100494.16;1784182;80;21069;-83
2023/09/22 19:17:41;;;;;;;14.95;7.65;;;;;;;20.93;51.42;100496.94;1793233;80;21019;-82
2023/09/22 19:20:11;;;;;;;16.95;8.05;;;;;;;20.93;51.52;100494.16;1793505;80;21434;-84
2023/09/22 19:22:42;;;;;;;13.72;8.33;;;;;;;20.93;51.62;100499.72;1793166;80;21551;-84
2023/09/22 19:25:12;;;;;;;13.95;7.35;;;;;;;20.95;51.72;100503.64;1793007;80;21030;-83
2023/09/22 19:27:41;;;;;;;13.70;7.53;;;;;;;20.95;51.74;100504.48;1793389;80;20998;-83
2023/09/22 19:30:11;;;;;;;17.10;7.90;;;;;;;20.96;51.87;100504.77;1793802;80;21022;-81
2023/09/22 19:32:41;;;;;;;11.73;7.70;;;;;;;20.98;52.01;100505.89;1793205;80;20995;-81
2023/09/22 19:35:13;;;;;;;15.15;7.50;;;;;;;20.98;52.09;100501.72;1793137;80;21034;-82
2023/09/22 19:37:42;;;;;;;13.78;7.30;;;;;;;20.96;52.17;100503.38;1793460;80;20974;-83
2023/09/22 19:40:13;;;;;;;18.77;8.28;;;;;;;20.95;52.26;100500.85;1793161;80;21472;-83
2023/09/22 19:42:44;;;;;;;15.03;7.95;;;;;;;20.96;52.40;100499.20;1793607;80;21002;-84
2023/09/22 19:45:14;;;;;;;10.88;7.45;;;;;;;20.95;52.65;100493.89;1793479;80;21018;-84
2023/09/22 19:47:48;;;;;;;11.70;7.40;;;;;;;20.94;52.67;100502.80;1793303;80;21073;-82
2023/09/22 19:50:18;;;;;;;10.60;6.85;;;;;;;20.95;52.75;100504.48;1793377;80;21062;-84